createdAt,value
2017-01-16T00:01:07.687Z,50.51
2017-01-16T00:02:16.672Z,50.48
2017-01-16T00:03:25.643Z,50.38
2017-01-16T00:04:34.618Z,50.1
2017-01-16T00:05:43.609Z,50.2
2017-01-16T00:06:52.583Z,50.1
2017-01-16T00:08:01.565Z,50.38
2017-01-16T00:09:10.544Z,50.2
2017-01-16T00:10:19.555Z,50.67
2017-01-16T00:11:28.523Z,50.58
2017-01-16T00:12:37.520Z,50.58
2017-01-16T00:13:46.491Z,50.67
2017-01-16T00:14:55.465Z,50.48
2017-01-16T00:16:04.444Z,50.48
2017-01-16T00:17:13.451Z,50.48
2017-01-16T00:18:22.426Z,50.58
2017-01-16T00:19:31.397Z,50.2
2017-01-16T00:20:40.384Z,50.1
2017-01-16T00:21:49.384Z,50.36
2017-01-16T00:22:58.360Z,50.65
2017-01-16T00:24:07.335Z,50.38
2017-01-16T00:25:16.310Z,50.17
2017-01-16T00:26:25.284Z,50.65
2017-01-16T00:27:34.272Z,50.56
2017-01-16T00:28:43.245Z,50.46
2017-01-16T00:29:52.220Z,50.56
2017-01-16T00:31:01.204Z,50.56
2017-01-16T00:32:10.168Z,50.65
2017-01-16T00:33:19.142Z,50.56
2017-01-16T00:34:28.120Z,50.46
2017-01-16T00:35:37.091Z,50.46
2017-01-16T00:36:46.072Z,50.65
2017-01-16T00:37:55.041Z,50.36
2017-01-16T00:39:04.019Z,50.07
2017-01-16T00:40:12.984Z,50.46
2017-01-16T00:41:21.962Z,50.46
2017-01-16T00:42:30.936Z,50.65
2017-01-16T00:43:39.905Z,50.56
2017-01-16T00:44:48.878Z,50.46
2017-01-16T00:45:57.864Z,50.65
2017-01-16T00:47:06.842Z,50.26
2017-01-16T00:48:15.821Z,50.46
2017-01-16T00:49:24.795Z,50.17
2017-01-16T00:50:33.765Z,50.36
2017-01-16T00:51:42.735Z,50.46
2017-01-16T00:52:51.718Z,50.65
2017-01-16T00:54:00.711Z,50.74
2017-01-16T00:55:09.685Z,50.56
2017-01-16T00:56:18.666Z,50.26
2017-01-16T00:57:27.641Z,50.65
2017-01-16T00:58:36.611Z,50.36
2017-01-16T00:59:45.579Z,50.46
2017-01-16T01:00:54.566Z,50.62
2017-01-16T01:02:03.549Z,50.43
2017-01-16T01:03:12.511Z,50.52
2017-01-16T01:04:21.894Z,50.24
2017-01-16T01:05:30.885Z,50.62
2017-01-16T01:06:39.858Z,50.34
2017-01-16T01:07:48.835Z,50.52
2017-01-16T01:08:57.810Z,50.81
2017-01-16T01:10:06.809Z,50.91
2017-01-16T01:11:15.807Z,50.43
2017-01-16T01:12:24.790Z,50.52
2017-01-16T01:13:33.768Z,50.52
2017-01-16T01:14:42.757Z,51.01
2017-01-16T01:15:51.722Z,50.91
2017-01-16T01:17:00.698Z,51.39
2017-01-16T01:18:09.688Z,51.29
2017-01-16T01:19:18.665Z,50.62
2017-01-16T01:20:27.639Z,50.34
2017-01-16T01:21:36.624Z,50.34
2017-01-16T01:22:45.589Z,50.62
2017-01-16T01:23:54.563Z,50.91
2017-01-16T01:25:03.548Z,50.52
2017-01-16T01:26:12.522Z,50.52
2017-01-16T01:27:21.488Z,51.01
2017-01-16T01:28:30.491Z,51.29
2017-01-16T01:29:39.496Z,50.98
2017-01-16T01:30:48.469Z,50.98
2017-01-16T01:31:57.442Z,50.98
2017-01-16T01:33:06.415Z,51.27
2017-01-16T01:34:15.395Z,50.89
2017-01-16T01:35:24.357Z,51.36
2017-01-16T01:36:33.367Z,51.07
2017-01-16T01:37:42.346Z,50.98
2017-01-16T01:38:51.325Z,51.46
2017-01-16T01:40:00.302Z,50.98
2017-01-16T01:41:09.283Z,51.17
2017-01-16T01:42:18.267Z,51.17
2017-01-16T01:43:27.252Z,50.98
2017-01-16T01:44:36.219Z,50.98
2017-01-16T01:45:45.190Z,51.07
2017-01-16T01:46:54.178Z,50.89
2017-01-16T01:48:03.148Z,51.07
2017-01-16T01:49:12.124Z,51.56
2017-01-16T01:50:21.087Z,51.27
2017-01-16T01:51:30.067Z,51.17
2017-01-16T01:52:39.040Z,50.98
2017-01-16T01:53:48.013Z,50.98
2017-01-16T01:54:56.980Z,51.17
2017-01-16T01:56:05.952Z,50.98
2017-01-16T01:57:14.942Z,51.56
2017-01-16T01:58:23.907Z,51.56
2017-01-16T01:59:32.888Z,50.98
2017-01-16T02:00:41.871Z,51.56
2017-01-16T02:01:50.843Z,51.65
2017-01-16T02:02:59.823Z,51.27
2017-01-16T02:04:08.823Z,51.65
2017-01-16T02:05:17.817Z,52.13
2017-01-16T02:06:26.794Z,51.27
2017-01-16T02:07:35.782Z,51.46
2017-01-16T02:08:44.748Z,51.27
2017-01-16T02:09:53.722Z,50.98
2017-01-16T02:11:02.689Z,51.17
2017-01-16T02:12:11.697Z,51.27
2017-01-16T02:13:20.666Z,51.46
2017-01-16T02:14:29.647Z,52.03
2017-01-16T02:15:38.628Z,51.62
2017-01-16T02:16:47.585Z,51.07
2017-01-16T02:17:56.562Z,51.27
2017-01-16T02:19:05.543Z,52.03
2017-01-16T02:20:14.514Z,51.93
2017-01-16T02:21:23.484Z,51.84
2017-01-16T02:22:32.478Z,51.81
2017-01-16T02:23:41.455Z,52.01
2017-01-16T02:24:50.426Z,52.01
2017-01-16T02:25:59.413Z,52.1
2017-01-16T02:27:08.371Z,51.81
2017-01-16T02:28:17.354Z,52.1
2017-01-16T02:29:26.312Z,52.29
2017-01-16T02:30:35.288Z,52.39
2017-01-16T02:31:44.262Z,52.2
2017-01-16T02:32:53.235Z,52.01
2017-01-16T02:34:02.218Z,51.91
2017-01-16T02:35:11.224Z,52.1
2017-01-16T02:36:20.198Z,52.2
2017-01-16T02:37:29.169Z,52.2
2017-01-16T02:38:38.149Z,51.81
2017-01-16T02:39:47.125Z,51.91
2017-01-16T02:40:56.085Z,51.43
2017-01-16T02:42:05.068Z,51.81
2017-01-16T02:43:14.034Z,52.1
2017-01-16T02:44:23.007Z,52.1
2017-01-16T02:45:31.982Z,51.72
2017-01-16T02:46:40.940Z,52.1
2017-01-16T02:47:49.927Z,52.29
2017-01-16T02:48:58.911Z,52.39
2017-01-16T02:50:07.879Z,52.48
2017-01-16T02:51:16.857Z,52.2
2017-01-16T02:52:25.814Z,52.1
2017-01-16T02:53:34.809Z,52.2
2017-01-16T02:54:43.788Z,52.29
2017-01-16T02:55:52.762Z,52.2
2017-01-16T02:57:01.728Z,52.1
2017-01-16T02:58:10.701Z,51.81
2017-01-16T02:59:19.661Z,51.91
2017-01-16T03:00:28.628Z,51.91
2017-01-16T03:01:37.610Z,52.29
2017-01-16T03:02:46.611Z,52.2
2017-01-16T03:03:55.575Z,52.29
2017-01-16T03:05:04.547Z,52.2
2017-01-16T03:06:13.551Z,52.29
2017-01-16T03:07:22.528Z,52.29
2017-01-16T03:08:31.499Z,52.48
2017-01-16T03:09:40.470Z,52.39
2017-01-16T03:10:49.457Z,52.29
2017-01-16T03:11:58.482Z,52.08
2017-01-16T03:13:07.465Z,52.2
2017-01-16T03:14:16.437Z,52.65
2017-01-16T03:15:25.399Z,52.17
2017-01-16T03:16:34.377Z,52.36
2017-01-16T03:17:43.350Z,52.58
2017-01-16T03:18:52.320Z,52.65
2017-01-16T03:20:01.315Z,52.77
2017-01-16T03:21:10.278Z,52.55
2017-01-16T03:22:19.317Z,52.58
2017-01-16T03:23:28.312Z,52.75
2017-01-16T03:24:37.288Z,53.41
2017-01-16T03:25:46.252Z,53.32
2017-01-16T03:26:55.225Z,52.87
2017-01-16T03:28:04.189Z,53.03
2017-01-16T03:29:13.167Z,53.03
2017-01-16T03:30:22.150Z,52.55
2017-01-16T03:31:31.109Z,52.65
2017-01-16T03:32:40.076Z,52.75
2017-01-16T03:33:49.048Z,52.75
2017-01-16T03:34:58.025Z,52.55
2017-01-16T03:36:07.000Z,52.75
2017-01-16T03:37:15.986Z,52.84
2017-01-16T03:38:24.966Z,52.84
2017-01-16T03:39:33.955Z,53.32
2017-01-16T03:40:42.931Z,53.22
2017-01-16T03:41:51.905Z,52.84
2017-01-16T03:43:00.879Z,52.65
2017-01-16T03:44:09.852Z,53.13
2017-01-16T03:45:18.827Z,52.75
2017-01-16T03:46:27.789Z,52.84
2017-01-16T03:47:36.757Z,53.41
2017-01-16T03:48:45.732Z,52.75
2017-01-16T03:49:54.707Z,52.94
2017-01-16T03:51:03.696Z,53.41
2017-01-16T03:52:12.657Z,52.94
2017-01-16T03:53:22.053Z,52.84
2017-01-16T03:54:31.020Z,53.13
2017-01-16T03:55:39.997Z,53.13
2017-01-16T03:56:48.970Z,53.22
2017-01-16T03:57:57.944Z,53.51
2017-01-16T03:59:06.911Z,53.61
2017-01-16T04:00:15.881Z,53.7
2017-01-16T04:01:24.861Z,53.58
2017-01-16T04:02:33.838Z,53.61
2017-01-16T04:03:42.803Z,53.51
2017-01-16T04:04:51.776Z,53.7
2017-01-16T06:07:48.371Z,66.38
2017-01-16T06:08:57.362Z,65.52
2017-01-16T06:10:06.341Z,65.2
2017-01-16T06:11:15.302Z,64.53
2017-01-16T06:12:24.269Z,65.01
2017-01-16T06:13:33.236Z,65.05
2017-01-16T06:14:42.205Z,64.37
2017-01-16T06:15:51.183Z,64.47
2017-01-16T06:17:00.174Z,65.14
2017-01-16T06:18:09.130Z,65.33
2017-01-16T06:19:18.112Z,64.79
2017-01-16T06:20:27.078Z,64.5
2017-01-16T06:21:36.057Z,65.17
2017-01-16T06:22:45.038Z,64.4
2017-01-16T06:23:54.012Z,62.2
2017-01-16T06:25:02.989Z,61.34
2017-01-16T06:26:11.970Z,61.63
2017-01-16T06:27:20.937Z,63.35
2017-01-16T06:28:29.905Z,64.5
2017-01-16T06:29:38.893Z,65.2
2017-01-16T06:30:48.302Z,66.06
2017-01-16T06:31:57.265Z,65.88
2017-01-16T06:33:06.249Z,64.15
2017-01-16T06:34:15.219Z,63.29
2017-01-16T06:35:24.196Z,64.92
2017-01-16T06:36:33.173Z,65.88
2017-01-16T06:37:42.173Z,65.68
2017-01-16T06:38:51.140Z,66.35
2017-01-16T06:40:00.112Z,66.35
2017-01-16T06:41:09.082Z,66.06
2017-01-16T06:42:18.042Z,66.35
2017-01-16T06:43:27.016Z,67.22
2017-01-16T06:44:35.982Z,66.26
2017-01-16T06:45:44.949Z,66.55
2017-01-16T06:46:53.927Z,67.16
2017-01-16T06:48:02.903Z,67.16
2017-01-16T06:49:11.876Z,66.67
2017-01-16T06:50:20.846Z,66.77
2017-01-16T06:51:29.837Z,66.67
2017-01-16T06:52:38.811Z,66.58
2017-01-16T06:53:47.770Z,66.77
2017-01-16T06:54:56.751Z,66.77
2017-01-16T06:56:05.720Z,67.16
2017-01-16T06:57:14.689Z,67.16
2017-01-16T06:58:23.676Z,67.54
2017-01-16T06:59:32.652Z,67.54
2017-01-16T07:00:41.619Z,67.73
2017-01-16T07:01:50.591Z,67.44
2017-01-16T07:02:59.569Z,67.67
2017-01-16T07:04:08.575Z,67.54
2017-01-16T07:05:17.559Z,67.73
2017-01-16T07:06:26.519Z,67.19
2017-01-16T07:07:35.485Z,67.16
2017-01-16T07:08:44.459Z,67.54
2017-01-16T07:09:53.427Z,67.47
2017-01-16T07:11:02.410Z,67.44
2017-01-16T07:12:11.399Z,66.71
2017-01-16T07:13:20.367Z,67.19
2017-01-16T07:14:29.366Z,66.8
2017-01-16T07:15:38.329Z,66.9
2017-01-16T07:16:47.315Z,66.52
2017-01-16T07:17:56.283Z,66.61
2017-01-16T07:19:05.269Z,66.61
2017-01-16T07:20:14.247Z,66.8
2017-01-16T07:21:23.220Z,66.33
2017-01-16T07:22:32.201Z,66.23
2017-01-16T07:23:41.211Z,67.38
2017-01-16T07:24:50.247Z,65.97
2017-01-16T07:25:59.221Z,65.97
2017-01-16T07:27:08.186Z,64.72
2017-01-16T07:28:17.495Z,64.72
2017-01-16T07:29:27.210Z,64.63
2017-01-16T07:30:36.294Z,64.72
2017-01-16T07:31:45.341Z,64.34
2017-01-16T07:32:54.328Z,64.34
2017-01-16T07:34:03.323Z,64.34
2017-01-16T07:35:12.299Z,64.05
2017-01-16T07:36:21.305Z,64.72
2017-01-16T07:37:30.387Z,63.86
2017-01-16T07:38:39.369Z,63.86
2017-01-16T07:39:48.366Z,63.7
2017-01-16T07:40:57.370Z,63.57
2017-01-16T07:42:06.354Z,63.57
2017-01-16T07:43:15.338Z,63.79
2017-01-16T07:44:24.404Z,63.79
2017-01-16T07:45:33.777Z,63.6
2017-01-16T07:46:42.755Z,63.6
2017-01-16T07:47:51.734Z,63.6
2017-01-16T07:49:00.779Z,63.79
2017-01-16T07:50:09.859Z,63.6
2017-01-16T07:51:18.871Z,63.51
2017-01-16T07:52:27.953Z,63.89
2017-01-16T07:53:36.935Z,64.18
2017-01-16T07:54:45.917Z,63.51
2017-01-16T07:55:54.885Z,63.51
2017-01-16T07:57:03.860Z,62.93
2017-01-16T07:58:14.803Z,62.93
2017-01-16T07:59:24.222Z,63.22
2017-01-16T08:00:33.209Z,63.12
2017-01-16T08:01:42.183Z,63.89
2017-01-16T08:02:51.581Z,63.41
2017-01-16T08:04:00.548Z,64.12
2017-01-16T08:05:09.523Z,63.54
2017-01-16T08:06:18.496Z,64.5
2017-01-16T08:07:27.484Z,62.96
2017-01-16T08:08:36.444Z,62.96
2017-01-16T08:09:45.430Z,62.51
2017-01-16T08:10:54.388Z,58.54
2017-01-16T08:12:03.365Z,55.85
2017-01-16T08:13:12.371Z,54.96
2017-01-16T08:14:21.357Z,53.9
2017-01-16T08:15:30.328Z,53.03
2017-01-16T08:16:39.307Z,52.43
2017-01-16T08:17:48.274Z,51.37
2017-01-16T08:18:57.248Z,51.16
2017-01-16T08:20:06.231Z,51.16
2017-01-16T08:21:15.212Z,50.56
2017-01-16T08:22:24.173Z,50.65
2017-01-16T08:23:33.153Z,50.65
2017-01-16T08:24:42.126Z,50.08
2017-01-16T08:25:51.099Z,50.27
2017-01-16T08:27:00.071Z,49.76
2017-01-16T08:28:09.047Z,49.67
2017-01-16T08:29:18.042Z,49.57
2017-01-16T08:30:27.018Z,49.36
2017-01-16T08:31:35.993Z,49.36
2017-01-16T08:32:44.954Z,49.26
2017-01-16T08:33:53.932Z,49.26
2017-01-16T08:35:02.921Z,49.26
2017-01-16T08:36:11.887Z,48.95
2017-01-16T08:37:20.862Z,48.75
2017-01-16T08:38:29.834Z,48.57
2017-01-16T08:39:38.806Z,48.66
2017-01-16T08:40:47.779Z,48.38
2017-01-16T08:41:56.759Z,48.09
2017-01-16T08:43:05.730Z,48.11
2017-01-16T08:44:14.702Z,48.18
2017-01-16T08:45:23.677Z,48.18
2017-01-16T08:46:32.637Z,48.09
2017-01-16T08:47:41.620Z,47.89
2017-01-16T08:48:50.603Z,48.09
2017-01-16T08:49:59.577Z,47.89
2017-01-16T08:51:08.552Z,47.99
2017-01-16T08:52:18.001Z,47.87
2017-01-16T08:53:27.002Z,47.78
2017-01-16T08:54:35.986Z,47.89
2017-01-16T08:55:44.977Z,47.87
2017-01-16T08:56:53.958Z,47.87
2017-01-16T08:58:02.934Z,47.87
2017-01-16T08:59:11.916Z,47.87
2017-01-16T09:00:20.892Z,48.16
2017-01-16T09:01:29.872Z,47.39
2017-01-16T09:02:38.857Z,47.78
2017-01-16T09:03:47.818Z,47.49
2017-01-16T09:04:56.791Z,47.39
2017-01-16T09:06:05.756Z,48.07
2017-01-16T09:07:14.746Z,48.07
2017-01-16T09:08:23.707Z,47.87
2017-01-16T09:09:32.694Z,47.87
2017-01-16T09:10:41.667Z,47.87
2017-01-16T09:11:50.639Z,48.04
2017-01-16T09:12:59.626Z,47.94
2017-01-16T09:14:08.610Z,47.97
2017-01-16T09:15:17.589Z,47.97
2017-01-16T09:16:26.574Z,47.87
2017-01-16T09:17:35.551Z,47.85
2017-01-16T09:18:44.513Z,47.85
2017-01-16T09:19:53.490Z,47.94
2017-01-16T09:21:02.468Z,47.85
2017-01-16T09:22:11.438Z,47.85
2017-01-16T09:23:20.426Z,47.75
2017-01-16T09:24:29.384Z,48.13
2017-01-16T09:25:38.362Z,47.47
2017-01-16T09:26:47.339Z,47.56
2017-01-16T09:27:56.311Z,47.27
2017-01-16T09:29:05.291Z,47.47
2017-01-16T09:30:14.274Z,47.47
2017-01-16T09:31:23.247Z,47.66
2017-01-16T09:32:32.215Z,48.04
2017-01-16T09:33:41.204Z,47.66
2017-01-16T09:34:50.189Z,47.94
2017-01-16T09:35:59.594Z,47.47
2017-01-16T09:37:08.574Z,47.37
2017-01-16T09:38:17.540Z,47.37
2017-01-16T09:39:26.511Z,48.13
2017-01-16T09:40:35.496Z,48.04
2017-01-16T09:41:44.487Z,47.94
2017-01-16T09:42:53.461Z,47.85
2017-01-16T09:44:02.445Z,47.37
2017-01-16T09:45:11.424Z,48.04
2017-01-16T09:46:20.408Z,47.73
2017-01-16T09:47:29.389Z,47.92
2017-01-16T09:48:38.369Z,47.92
2017-01-16T09:49:47.337Z,47.82
2017-01-16T09:50:56.324Z,48.11
2017-01-16T09:52:05.292Z,47.34
2017-01-16T09:53:14.264Z,47.53
2017-01-16T09:54:23.239Z,47.44
2017-01-16T09:55:32.226Z,47.44
2017-01-16T09:56:41.191Z,47.44
2017-01-16T09:57:50.161Z,47.44
2017-01-16T09:58:59.136Z,48.02
2017-01-16T10:00:08.122Z,47.82
2017-01-16T10:01:17.101Z,47.92
2017-01-16T10:02:26.071Z,47.92
2017-01-16T10:03:35.037Z,47.82
2017-01-16T10:04:44.008Z,47.73
2017-01-16T10:05:52.996Z,47.25
2017-01-16T10:07:01.970Z,47.92
2017-01-16T10:08:10.950Z,47.63
2017-01-16T10:09:19.918Z,47.92
2017-01-16T10:10:28.897Z,47.82
2017-01-16T10:11:37.860Z,47.73
2017-01-16T10:12:46.838Z,47.92
2017-01-16T10:13:55.813Z,48.02
2017-01-16T10:15:04.789Z,47.73
2017-01-16T10:16:13.756Z,47.53
2017-01-16T10:17:22.729Z,47.25
2017-01-16T10:18:31.711Z,47.63
2017-01-16T10:19:40.680Z,48.02
2017-01-16T10:20:49.659Z,47.92
2017-01-16T10:21:58.631Z,47.92
2017-01-16T10:23:07.616Z,47.92
2017-01-16T10:24:16.586Z,47.73
2017-01-16T10:25:25.550Z,47.73
2017-01-16T10:26:34.527Z,47.92
2017-01-16T10:27:43.526Z,48.02
2017-01-16T10:28:52.486Z,48.02
2017-01-16T10:30:01.466Z,48.02
2017-01-16T10:31:10.453Z,48.02
2017-01-16T10:32:19.431Z,47.44
2017-01-16T10:33:28.405Z,47.34
2017-01-16T10:34:37.389Z,47.44
2017-01-16T10:35:46.360Z,47.92
2017-01-16T10:36:55.422Z,47.82
2017-01-16T10:38:04.421Z,48.11
2017-01-16T10:39:13.392Z,47.92
2017-01-16T10:40:22.370Z,47.92
2017-01-16T10:41:31.359Z,48.3
2017-01-16T10:42:40.343Z,47.99
2017-01-16T10:43:49.326Z,48.09
2017-01-16T10:44:58.300Z,48.18
2017-01-16T10:46:07.268Z,48.28
2017-01-16T10:47:16.248Z,48.28
2017-01-16T10:48:25.223Z,48.18
2017-01-16T10:49:34.188Z,48.47
2017-01-16T10:50:43.166Z,48.18
2017-01-16T10:51:52.139Z,48.28
2017-01-16T10:53:01.131Z,48.28
2017-01-16T10:54:10.107Z,48.18
2017-01-16T10:55:19.094Z,48.28
2017-01-16T10:56:28.053Z,48.28
2017-01-16T10:57:37.026Z,48.38
2017-01-16T10:58:46.009Z,48.38
2017-01-16T10:59:54.978Z,48.09
2017-01-16T11:01:03.954Z,48.38
2017-01-16T11:02:12.937Z,48.38
2017-01-16T11:03:21.911Z,48.57
2017-01-16T11:04:30.868Z,48.66
2017-01-16T11:05:39.852Z,48.38
2017-01-16T11:06:48.812Z,48.66
2017-01-16T11:07:57.811Z,48.28
2017-01-16T11:09:06.785Z,48.28
2017-01-16T11:10:15.759Z,48.38
2017-01-16T11:11:24.735Z,48.47
2017-01-16T11:12:33.703Z,48.47
2017-01-16T11:13:42.672Z,48.66
2017-01-16T11:14:51.652Z,48.57
2017-01-16T11:16:00.633Z,48.57
2017-01-16T11:17:09.587Z,48.47
2017-01-16T11:18:18.563Z,48.18
2017-01-16T11:19:27.558Z,48.28
2017-01-16T11:20:36.522Z,48.18
2017-01-16T11:21:45.500Z,48.09
2017-01-16T11:22:54.475Z,47.8
2017-01-16T11:24:03.453Z,48.09
2017-01-16T11:25:12.428Z,48.18
2017-01-16T11:26:21.403Z,48.18
2017-01-16T11:27:30.377Z,48.28
2017-01-16T11:28:39.351Z,48.47
2017-01-16T11:29:48.335Z,48.57
2017-01-16T11:30:57.305Z,48.47
2017-01-16T11:32:06.280Z,48.28
2017-01-16T11:33:15.277Z,47.99
2017-01-16T11:34:24.250Z,48.28
2017-01-16T11:35:33.222Z,48.47
2017-01-16T11:36:42.206Z,48.66
2017-01-16T11:37:51.177Z,48.64
2017-01-16T11:39:00.143Z,48.75
2017-01-16T11:40:09.124Z,48.47
2017-01-16T11:41:18.105Z,48.25
2017-01-16T11:42:27.072Z,48.57
2017-01-16T11:43:36.055Z,48.66
2017-01-16T11:44:45.027Z,48.93
2017-01-16T11:45:53.994Z,48.93
2017-01-16T11:47:02.970Z,48.66
2017-01-16T11:48:11.962Z,48.85
2017-01-16T11:49:20.926Z,49.04
2017-01-16T11:50:29.918Z,48.75
2017-01-16T11:51:38.875Z,48.85
2017-01-16T11:52:47.850Z,49.14
2017-01-16T11:53:56.815Z,49.04
2017-01-16T11:55:05.797Z,49.3
2017-01-16T11:56:14.763Z,49.49
2017-01-16T11:57:23.736Z,49.71
2017-01-16T11:58:32.703Z,49.49
2017-01-16T11:59:41.681Z,49.3
2017-01-16T12:00:50.659Z,49.3
2017-01-16T12:01:59.632Z,49.3
2017-01-16T12:03:08.612Z,49.8
2017-01-16T12:04:17.576Z,54.88
2017-01-16T12:05:26.559Z,57.48
2017-01-16T12:06:35.536Z,59.3
2017-01-16T12:07:44.566Z,60.38
2017-01-16T12:08:53.530Z,60.61
2017-01-16T12:10:03.245Z,59.36
2017-01-16T12:11:13.659Z,59.48
2017-01-16T12:12:22.732Z,58.72
2017-01-16T12:13:32.600Z,58.91
2017-01-16T12:14:41.584Z,59.8
2017-01-16T12:15:52.005Z,59.52
2017-01-16T12:17:00.977Z,58.97
2017-01-16T12:18:09.956Z,59.36
2017-01-16T12:19:18.921Z,59.64
2017-01-16T12:20:27.894Z,59.74
2017-01-16T12:21:36.872Z,59.67
2017-01-16T12:22:45.848Z,60.72
2017-01-16T12:23:54.824Z,60.35
2017-01-16T12:25:03.793Z,60.35
2017-01-16T12:26:12.762Z,60.95
2017-01-16T12:27:21.741Z,61.24
2017-01-16T12:28:30.716Z,60.75
2017-01-16T12:29:39.687Z,60.5
2017-01-16T12:30:48.671Z,61.55
2017-01-16T12:31:57.670Z,61.75
2017-01-16T12:33:06.647Z,62.32
2017-01-16T12:34:15.617Z,62.84
2017-01-16T12:35:24.592Z,63.12
2017-01-16T12:36:33.581Z,62.84
2017-01-16T12:37:42.548Z,63.12
2017-01-16T12:38:51.531Z,62.93
2017-01-16T12:40:00.508Z,63.22
2017-01-16T12:41:09.482Z,62.74
2017-01-16T12:42:18.454Z,63.89
2017-01-16T12:43:27.415Z,63.7
2017-01-16T12:44:36.393Z,63.51
2017-01-16T12:45:45.378Z,62.45
2017-01-16T12:46:54.339Z,62.55
2017-01-16T12:48:03.320Z,62.16
2017-01-16T12:49:12.297Z,63.32
2017-01-16T12:50:21.306Z,63.12
2017-01-16T12:51:30.282Z,62.93
2017-01-16T12:52:39.266Z,62.35
2017-01-16T12:53:48.225Z,62.84
2017-01-16T12:54:57.190Z,64.37
2017-01-16T12:56:06.362Z,62.19
2017-01-16T12:57:15.913Z,62.55
2017-01-16T12:58:24.901Z,62.64
2017-01-16T12:59:33.873Z,62.64
2017-01-16T13:00:42.856Z,62.19
2017-01-16T13:01:51.820Z,62.19
2017-01-16T13:03:00.796Z,61.81
2017-01-16T13:04:09.761Z,61.71
2017-01-16T13:05:18.737Z,62.38
2017-01-16T13:06:27.730Z,62
2017-01-16T13:07:36.711Z,61.71
2017-01-16T13:08:45.698Z,61.52
2017-01-16T13:09:54.669Z,61.71
2017-01-16T13:11:03.647Z,61.81
2017-01-16T13:12:12.622Z,62.19
2017-01-16T13:13:21.607Z,61.71
2017-01-16T13:14:30.574Z,61.71
2017-01-16T13:15:39.562Z,62
2017-01-16T13:16:48.545Z,62
2017-01-16T13:17:57.514Z,62
2017-01-16T13:19:06.917Z,61.84
2017-01-16T13:20:15.893Z,61.91
2017-01-16T13:21:24.873Z,62.1
2017-01-16T13:22:33.845Z,62.19
2017-01-16T13:23:42.895Z,62.38
2017-01-16T13:24:51.880Z,62.03
2017-01-16T13:26:00.883Z,62.29
2017-01-16T13:27:09.856Z,61.74
2017-01-16T13:28:18.820Z,61.81
2017-01-16T13:29:27.788Z,62.58
2017-01-16T13:30:36.796Z,62.41
2017-01-16T13:31:45.774Z,62.41
2017-01-16T13:32:54.748Z,62.32
2017-01-16T13:34:03.736Z,62.41
2017-01-16T13:35:12.709Z,61.94
2017-01-16T13:36:21.683Z,62.13
2017-01-16T13:37:30.667Z,61.84
2017-01-16T13:38:39.663Z,61.94
2017-01-16T13:39:50.206Z,62.03
2017-01-16T13:40:59.205Z,61.94
2017-01-16T13:42:08.187Z,61.74
2017-01-16T13:43:17.185Z,62.23
2017-01-16T13:44:26.564Z,61.77
2017-01-16T13:45:35.543Z,61.39
2017-01-16T13:46:44.525Z,61.58
2017-01-16T13:47:53.575Z,62.13
2017-01-16T13:49:02.623Z,61.39
2017-01-16T13:50:11.591Z,61.49
2017-01-16T13:51:20.592Z,62.23
2017-01-16T13:52:29.904Z,61.68
2017-01-16T13:53:38.894Z,61.49
2017-01-16T13:54:47.924Z,61.58
2017-01-16T13:55:57.224Z,61.87
2017-01-16T13:57:06.240Z,62.06
2017-01-16T13:58:15.232Z,61.49
2017-01-16T13:59:24.211Z,62.06
2017-01-16T14:00:33.364Z,61.87
2017-01-16T14:01:42.365Z,62.06
2017-01-16T14:02:51.336Z,62.16
2017-01-16T14:04:00.380Z,62.06
2017-01-16T14:05:09.568Z,62.06
2017-01-16T14:06:18.532Z,61.68
2017-01-16T14:07:27.518Z,61.97
2017-01-16T14:08:36.682Z,61.87
2017-01-16T14:09:45.673Z,61.97
2017-01-16T14:10:54.708Z,61.77
2017-01-16T14:12:03.997Z,62.06
2017-01-16T14:13:13.085Z,62.45
2017-01-16T14:14:22.072Z,62.45
2017-01-16T14:15:31.136Z,62.83
2017-01-16T14:16:40.131Z,62.16
2017-01-16T14:17:49.254Z,62.57
2017-01-16T14:18:58.238Z,62.48
2017-01-16T14:20:07.222Z,62.29
2017-01-16T14:21:16.395Z,62.38
2017-01-16T14:22:25.372Z,62.29
2017-01-16T14:23:34.365Z,62.38
2017-01-16T14:24:43.351Z,62.48
2017-01-16T14:25:52.349Z,62.57
2017-01-16T14:27:01.346Z,62.48
2017-01-16T14:28:10.339Z,62.48
2017-01-16T14:29:19.312Z,62.29
2017-01-16T14:30:28.292Z,62.09
2017-01-16T14:31:37.281Z,62.57
2017-01-16T14:32:46.273Z,62.48
2017-01-16T14:33:55.266Z,62.29
2017-01-16T14:35:04.376Z,62.48
2017-01-16T14:36:13.377Z,62
2017-01-16T14:37:22.473Z,62.19
2017-01-16T14:38:31.507Z,62.38
2017-01-16T14:39:40.480Z,62.09
2017-01-16T14:40:49.457Z,62.48
2017-01-16T14:41:58.869Z,62.67
2017-01-16T14:43:07.894Z,62.38
2017-01-16T14:44:16.976Z,62.09
2017-01-16T14:45:25.956Z,62.29
2017-01-16T14:46:34.944Z,62.57
2017-01-16T14:47:43.918Z,62.38
2017-01-16T14:48:52.952Z,62.87
2017-01-16T14:50:01.956Z,62.67
2017-01-16T14:51:10.970Z,62.96
2017-01-16T14:52:20.002Z,62.38
2017-01-16T14:53:28.992Z,62.48
2017-01-16T14:54:37.982Z,62.38
2017-01-16T14:55:46.987Z,62.38
2017-01-16T14:56:55.969Z,62.29
2017-01-16T14:58:04.948Z,62.48
2017-01-16T14:59:13.977Z,62.96
2017-01-16T15:00:22.971Z,63.06
2017-01-16T15:01:31.945Z,62.29
2017-01-16T15:02:40.928Z,62.38
2017-01-16T15:03:49.906Z,63.34
2017-01-16T15:04:58.906Z,62.29
2017-01-16T15:06:07.914Z,62.12
2017-01-16T15:07:20.619Z,62.03
2017-01-16T19:09:23.931Z,64.79
2017-01-16T19:10:33.100Z,66.05
2017-01-16T19:11:42.365Z,67.14
2017-01-16T19:12:52.651Z,68.84
2017-01-16T19:14:01.632Z,68.65
2017-01-16T19:15:10.604Z,69.67
2017-01-16T19:16:19.640Z,69.67
2017-01-16T19:17:29.360Z,69.57
2017-01-16T19:18:38.358Z,69.57
2017-01-16T19:19:47.421Z,69.67
2017-01-16T19:20:56.437Z,69.67
2017-01-16T19:22:05.407Z,69.57
2017-01-16T19:23:14.704Z,70.06
2017-01-16T19:24:24.182Z,70.06
2017-01-16T19:25:33.324Z,70.06
2017-01-16T19:26:43.153Z,70.15
2017-01-16T19:27:52.150Z,70.06
2017-01-16T19:29:01.281Z,70.15
2017-01-16T19:30:10.620Z,70.06
2017-01-16T19:31:19.628Z,69.96
2017-01-16T19:32:28.842Z,70.64
2017-01-16T19:33:38.133Z,70.44
2017-01-16T19:34:47.148Z,70.25
2017-01-16T19:35:56.124Z,69.77
2017-01-16T19:37:05.134Z,69.96
2017-01-16T19:38:14.113Z,70.15
2017-01-16T19:39:23.099Z,70.73
2017-01-16T19:40:32.083Z,70.54
2017-01-16T19:41:41.059Z,71.12
2017-01-16T19:42:50.043Z,70.64
2017-01-16T19:43:59.047Z,70.54
2017-01-16T19:45:08.035Z,70.73
2017-01-16T19:46:17.054Z,70.54
2017-01-16T19:47:26.047Z,70.44
2017-01-16T19:48:35.563Z,70.64
2017-01-16T19:49:45.220Z,70.25
2017-01-16T19:50:54.200Z,70.35
2017-01-16T19:52:03.446Z,70.64
2017-01-16T19:53:12.902Z,70.73
2017-01-16T19:54:21.930Z,70.92
2017-01-16T19:55:31.154Z,70.64
2017-01-16T19:56:40.216Z,70.15
2017-01-16T19:57:49.186Z,70.06
2017-01-16T19:58:58.335Z,69.96
2017-01-16T20:00:07.931Z,69.77
2017-01-16T20:01:16.990Z,69.96
2017-01-16T20:02:25.979Z,70.64
2017-01-16T20:03:34.952Z,70.06
2017-01-16T20:04:43.934Z,70.35
2017-01-16T20:05:52.917Z,70.25
2017-01-16T20:07:01.951Z,70.06
2017-01-16T20:08:11.239Z,70.06
2017-01-16T20:09:20.242Z,70.06
2017-01-16T20:10:29.255Z,70.06
2017-01-16T20:11:38.222Z,70.15
2017-01-16T20:12:47.222Z,70.25
2017-01-16T20:13:56.214Z,69.38
2017-01-16T20:15:05.601Z,69.57
2017-01-16T20:16:14.602Z,70.06
2017-01-16T20:17:23.618Z,69.38
2017-01-16T20:18:32.629Z,69.29
2017-01-16T20:19:41.634Z,69.29
2017-01-16T20:20:50.625Z,69.29
2017-01-16T20:21:59.657Z,69.48
2017-01-16T20:23:08.651Z,69.57
2017-01-16T20:24:17.641Z,69.57
2017-01-16T20:25:26.662Z,70.25
2017-01-16T20:26:36.157Z,70.06
2017-01-16T20:27:45.194Z,70.15
2017-01-16T20:28:54.175Z,69.57
2017-01-16T20:30:03.162Z,69.57
2017-01-16T20:31:12.145Z,70.15
2017-01-16T20:32:21.144Z,69.57
2017-01-16T20:33:30.122Z,69.48
2017-01-16T20:34:39.109Z,69.71
2017-01-16T20:35:48.076Z,69.57
2017-01-16T20:36:57.070Z,69.48
2017-01-16T20:38:06.477Z,69.38
2017-01-16T20:39:15.472Z,69.67
2017-01-16T20:40:24.463Z,69.9
2017-01-16T20:41:33.480Z,69.71
2017-01-16T20:42:42.496Z,69.61
2017-01-16T20:43:51.479Z,69.51
2017-01-16T20:45:00.472Z,70.09
2017-01-16T20:46:09.460Z,69.23
2017-01-16T20:47:18.429Z,69.61
2017-01-16T20:48:27.418Z,69.51
2017-01-16T20:49:36.390Z,69.42
2017-01-16T20:50:45.383Z,69.23
2017-01-16T20:51:54.365Z,69.23
2017-01-16T20:53:03.351Z,69.42
2017-01-16T20:54:12.328Z,69.42